Time;durP1;ratioP1;P1;durP2;ratioP2;P2;SDS_P1;SDS_P2;PMS_P1;PMS_P2;Temp;Humidity;BMP_temperature;BMP_pressure;BME280_temperature;BME280_humidity;BME280_pressure;Samples;Min_cycle;Max_cycle;Signal;HPM_P1;HPM_P2
2023/06/21 00:00:36;;;;;;;13.07;10.63;;;;;;;;;;5030382;28;20155;-82
2023/06/21 00:03:04;;;;;;;14.80;10.18;;;;;;;;;;5033490;28;20060;-80
2023/06/21 00:05:30;;;;;;;12.98;11.20;;;;;;;;;;5029474;28;20058;-80
2023/06/21 00:07:57;;;;;;;12.77;10.27;;;;;;;;;;5034408;28;20049;-81
2023/06/21 00:10:23;;;;;;;14.30;10.55;;;;;;;;;;5033637;28;20098;-81
2023/06/21 00:12:50;;;;;;;13.07;11.02;;;;;;;;;;5030665;28;20093;-82
2023/06/21 00:15:16;;;;;;;14.98;11.68;;;;;;;;;;5030589;28;20060;-81
2023/06/21 00:17:42;;;;;;;12.07;10.80;;;;;;;;;;5029326;28;20030;-82
2023/06/21 00:20:10;;;;;;;14.65;11.63;;;;;;;;;;5022137;28;20041;-81
2023/06/21 00:22:36;;;;;;;15.80;12.15;;;;;;;;;;5034379;28;20467;-83
2023/06/21 00:25:02;;;;;;;14.32;12.57;;;;;;;;;;5029765;28;20933;-79
2023/06/21 00:27:28;;;;;;;18.27;12.98;;;;;;;;;;5032218;28;20057;-81
2023/06/21 00:29:54;;;;;;;16.10;12.27;;;;;;;;;;5031074;28;20043;-78
2023/06/21 00:32:21;;;;;;;15.77;13.65;;;;;;;;;;5030267;28;20125;-83
2023/06/21 00:34:47;;;;;;;16.65;14.85;;;;;;;;;;5030242;28;20021;-84
2023/06/21 00:37:17;;;;;;;14.90;12.88;;;;;;;;;;5029642;28;20029;-84
2023/06/21 00:39:43;;;;;;;16.58;13.23;;;;;;;;;;5045350;28;20065;-85
2023/06/21 00:42:10;;;;;;;16.15;14.45;;;;;;;;;;5030476;28;20040;-83
2023/06/21 00:44:36;;;;;;;17.42;14.30;;;;;;;;;;5025183;28;20033;-82
2023/06/21 00:47:03;;;;;;;17.75;14.45;;;;;;;;;;5025094;28;20082;-82
2023/06/21 00:49:29;;;;;;;15.32;13.85;;;;;;;;;;5030111;28;20513;-84
2023/06/21 00:51:58;;;;;;;14.85;13.32;;;;;;;;;;5029192;28;20025;-84
2023/06/21 00:54:32;;;;;;;20.08;14.77;;;;;;;;;;5031416;28;20072;-83
2023/06/21 00:56:58;;;;;;;20.13;14.88;;;;;;;;;;5018477;28;20028;-83
2023/06/21 00:59:28;;;;;;;19.13;14.65;;;;;;;;;;5027266;28;20175;-84
2023/06/21 01:01:58;;;;;;;18.48;15.88;;;;;;;;;;5028769;28;20029;-84
2023/06/21 01:04:24;;;;;;;23.85;15.93;;;;;;;;;;5030166;28;20049;-83
2023/06/21 01:06:57;;;;;;;17.20;15.07;;;;;;;;;;5022776;28;20037;-83
2023/06/21 01:09:42;;;;;;;22.45;15.25;;;;;;;;;;5029358;28;20064;-82
2023/06/21 01:12:08;;;;;;;21.90;16.35;;;;;;;;;;5030348;28;20021;-82
2023/06/21 01:14:57;;;;;;;16.20;14.40;;;;;;;;;;5030541;28;20033;-83
2023/06/21 01:17:24;;;;;;;21.27;15.48;;;;;;;;;;5022688;28;20057;-83
2023/06/21 01:19:51;;;;;;;19.83;16.35;;;;;;;;;;5030913;28;20045;-85
2023/06/21 01:22:23;;;;;;;19.77;16.13;;;;;;;;;;5029366;28;20025;-79
2023/06/21 01:25:06;;;;;;;18.23;15.75;;;;;;;;;;5027627;28;20055;-84
2023/06/21 01:27:34;;;;;;;19.35;17.02;;;;;;;;;;5027800;28;20052;-83
2023/06/21 01:30:02;;;;;;;22.65;18.23;;;;;;;;;;5026484;28;20048;-84
2023/06/21 01:32:28;;;;;;;24.38;18.70;;;;;;;;;;5029701;28;20059;-82
2023/06/21 01:34:55;;;;;;;23.25;18.40;;;;;;;;;;5028628;28;20033;-84
2023/06/21 01:37:22;;;;;;;26.85;18.52;;;;;;;;;;5028964;28;20037;-84
2023/06/21 01:39:48;;;;;;;24.25;18.58;;;;;;;;;;5026138;28;20479;-85
2023/06/21 01:42:14;;;;;;;23.85;18.15;;;;;;;;;;5030414;28;20037;-82
2023/06/21 01:44:40;;;;;;;21.88;19.55;;;;;;;;;;5025586;28;20052;-85
2023/06/21 01:47:07;;;;;;;23.42;18.83;;;;;;;;;;5027434;28;20064;-82
2023/06/21 01:49:34;;;;;;;25.90;19.35;;;;;;;;;;5027668;28;20491;-81
2023/06/21 01:52:04;;;;;;;23.67;18.52;;;;;;;;;;5027176;28;20025;-82
2023/06/21 01:54:30;;;;;;;23.27;20.33;;;;;;;;;;5028016;28;21117;-83
2023/06/21 01:56:59;;;;;;;25.67;20.25;;;;;;;;;;5028390;28;20033;-83
2023/06/21 01:59:25;;;;;;;25.23;21.52;;;;;;;;;;5020482;28;20558;-82
2023/06/21 02:01:52;;;;;;;28.95;21.65;;;;;;;;;;5024916;28;20029;-84
2023/06/21 02:04:20;;;;;;;27.38;22.95;;;;;;;;;;5028527;28;20506;-82
2023/06/21 02:06:48;;;;;;;31.95;23.50;;;;;;;;;;5039714;28;20104;-82
2023/06/21 02:09:14;;;;;;;30.48;26.02;;;;;;;;;;5028358;28;20101;-78
2023/06/21 02:11:40;;;;;;;34.83;27.15;;;;;;;;;;5027681;28;20044;-82
2023/06/21 02:14:07;;;;;;;30.42;26.40;;;;;;;;;;5028480;28;20100;-80
2023/06/21 02:16:33;;;;;;;33.58;29.67;;;;;;;;;;5024825;28;20344;-82
2023/06/21 02:18:59;;;;;;;35.22;29.02;;;;;;;;;;5029018;28;20021;-83
2023/06/21 02:21:26;;;;;;;36.13;29.63;;;;;;;;;;5027396;28;20021;-86
2023/06/21 02:23:52;;;;;;;34.25;28.23;;;;;;;;;;5028898;28;20021;-81
2023/06/21 02:26:18;;;;;;;32.00;28.05;;;;;;;;;;5028750;28;20049;-83
2023/06/21 02:28:45;;;;;;;33.35;26.77;;;;;;;;;;5029140;28;20098;-85
2023/06/21 02:31:11;;;;;;;36.75;28.65;;;;;;;;;;5024264;28;20475;-82
2023/06/21 02:33:39;;;;;;;39.38;30.50;;;;;;;;;;5023354;28;20040;-85
2023/06/21 02:36:05;;;;;;;37.28;30.65;;;;;;;;;;5028127;28;20117;-84
2023/06/21 02:38:31;;;;;;;39.83;30.42;;;;;;;;;;5030431;28;20052;-86
2023/06/21 02:40:58;;;;;;;40.45;31.20;;;;;;;;;;5040994;28;20500;-83
2023/06/21 02:43:24;;;;;;;40.70;30.50;;;;;;;;;;5029228;28;20133;-84
2023/06/21 02:45:50;;;;;;;39.75;29.42;;;;;;;;;;5027358;28;20097;-83
2023/06/21 02:48:16;;;;;;;36.30;28.75;;;;;;;;;;5027420;28;20029;-80
2023/06/21 02:50:42;;;;;;;36.42;29.52;;;;;;;;;;5020074;28;20041;-83
2023/06/21 02:53:08;;;;;;;36.40;30.48;;;;;;;;;;5028731;28;20033;-83
2023/06/21 02:55:34;;;;;;;37.75;30.08;;;;;;;;;;5022599;28;20433;-82
2023/06/21 02:58:00;;;;;;;35.97;29.60;;;;;;;;;;5027968;28;20038;-82
2023/06/21 03:00:29;;;;;;;35.88;28.52;;;;;;;;;;5029352;28;20087;-83
2023/06/21 03:03:00;;;;;;;38.28;30.08;;;;;;;;;;5027251;28;20044;-82
2023/06/21 03:05:29;;;;;;;41.40;29.95;;;;;;;;;;5038010;28;20029;-84
2023/06/21 03:07:55;;;;;;;40.47;30.27;;;;;;;;;;5029681;28;20056;-83
2023/06/21 03:10:21;;;;;;;40.08;30.52;;;;;;;;;;5031090;28;20039;-79
2023/06/21 03:12:47;;;;;;;36.45;29.95;;;;;;;;;;5025227;28;20137;-82
2023/06/21 03:15:13;;;;;;;39.65;30.42;;;;;;;;;;5031148;28;20442;-82
2023/06/21 03:17:40;;;;;;;37.53;30.40;;;;;;;;;;5028607;28;20079;-81
2023/06/21 03:20:13;;;;;;;39.53;30.55;;;;;;;;;;5028103;28;20038;-81
2023/06/21 03:22:43;;;;;;;36.05;28.83;;;;;;;;;;5027885;28;20116;-83
2023/06/21 03:25:10;;;;;;;40.20;29.15;;;;;;;;;;5031750;28;20059;-81
2023/06/21 03:27:36;;;;;;;37.00;27.95;;;;;;;;;;5029485;28;20029;-83
2023/06/21 03:30:02;;;;;;;37.33;27.75;;;;;;;;;;5033088;28;20042;-82
2023/06/21 03:32:28;;;;;;;32.25;27.05;;;;;;;;;;5030745;28;20525;-83
2023/06/21 03:34:54;;;;;;;38.88;28.80;;;;;;;;;;5028747;28;20041;-84
2023/06/21 03:37:20;;;;;;;37.28;27.67;;;;;;;;;;5032277;28;20025;-84
2023/06/21 03:39:47;;;;;;;40.08;28.98;;;;;;;;;;5029421;28;20121;-83
2023/06/21 03:42:13;;;;;;;34.72;27.92;;;;;;;;;;5031087;28;20036;-82
2023/06/21 03:44:39;;;;;;;34.03;26.88;;;;;;;;;;5030693;28;20038;-84
2023/06/21 03:47:05;;;;;;;36.20;26.88;;;;;;;;;;5031823;28;20490;-84
2023/06/21 03:49:32;;;;;;;38.60;29.27;;;;;;;;;;5029047;28;20123;-83
2023/06/21 03:51:58;;;;;;;39.63;27.27;;;;;;;;;;5030133;28;20033;-83
2023/06/21 03:54:24;;;;;;;40.65;28.45;;;;;;;;;;5031008;28;20403;-84
2023/06/21 03:56:50;;;;;;;37.75;26.48;;;;;;;;;;5032078;28;20029;-83
2023/06/21 03:59:16;;;;;;;34.55;25.40;;;;;;;;;;5028875;28;20044;-82
2023/06/21 04:01:42;;;;;;;34.45;25.35;;;;;;;;;;5027159;28;20853;-85
2023/06/21 04:04:08;;;;;;;30.92;23.88;;;;;;;;;;5027821;28;20071;-81
2023/06/21 04:06:34;;;;;;;40.85;26.00;;;;;;;;;;5034706;28;20029;-82
2023/06/21 04:09:00;;;;;;;33.10;23.23;;;;;;;;;;5029447;28;20045;-83
2023/06/21 04:11:26;;;;;;;33.53;23.48;;;;;;;;;;5031839;28;20049;-82
2023/06/21 04:13:52;;;;;;;37.35;22.52;;;;;;;;;;5024430;28;20079;-81
2023/06/21 04:16:18;;;;;;;32.40;22.17;;;;;;;;;;5029990;28;20099;-84
2023/06/21 04:18:44;;;;;;;31.48;22.23;;;;;;;;;;5030579;28;20037;-84
2023/06/21 04:21:10;;;;;;;30.60;22.45;;;;;;;;;;5030237;28;20515;-84
2023/06/21 04:23:36;;;;;;;28.67;20.45;;;;;;;;;;5027485;28;20137;-83
2023/06/21 04:26:06;;;;;;;27.15;20.38;;;;;;;;;;5030246;28;20056;-80
2023/06/21 04:28:32;;;;;;;32.08;21.30;;;;;;;;;;5031325;28;20075;-83
2023/06/21 04:31:00;;;;;;;33.05;21.67;;;;;;;;;;5026760;28;20040;-80
2023/06/21 04:33:28;;;;;;;27.60;19.10;;;;;;;;;;5030938;28;20040;-82
2023/06/21 04:35:54;;;;;;;28.05;19.65;;;;;;;;;;5021836;28;20033;-76
2023/06/21 04:38:20;;;;;;;34.03;19.88;;;;;;;;;;5025363;28;20042;-85
2023/06/21 04:40:46;;;;;;;31.25;19.92;;;;;;;;;;5021563;28;20037;-81
2023/06/21 04:43:12;;;;;;;26.52;17.67;;;;;;;;;;5022894;28;20030;-82
2023/06/21 04:45:38;;;;;;;28.38;17.35;;;;;;;;;;5026980;28;20085;-81
2023/06/21 04:48:04;;;;;;;24.08;17.60;;;;;;;;;;5030230;28;20033;-83
2023/06/21 04:50:31;;;;;;;31.85;19.55;;;;;;;;;;5026056;28;20049;-74
2023/06/21 04:53:00;;;;;;;27.83;17.23;;;;;;;;;;5026816;28;20075;-75
2023/06/21 04:55:26;;;;;;;26.02;16.25;;;;;;;;;;5023440;28;20282;-76
2023/06/21 04:57:52;;;;;;;25.30;15.60;;;;;;;;;;5027238;28;20064;-77
2023/06/21 05:00:18;;;;;;;26.10;15.98;;;;;;;;;;5022244;28;20364;-78
2023/06/21 05:02:44;;;;;;;23.10;14.75;;;;;;;;;;5023579;28;20029;-78
2023/06/21 05:05:10;;;;;;;25.17;14.73;;;;;;;;;;5025310;28;20399;-79
2023/06/21 05:07:38;;;;;;;23.30;13.57;;;;;;;;;;5026762;28;20413;-76
2023/06/21 05:10:08;;;;;;;21.80;14.45;;;;;;;;;;5022697;28;20123;-74
2023/06/21 05:12:34;;;;;;;20.48;13.40;;;;;;;;;;5024862;28;20057;-75
2023/06/21 05:15:00;;;;;;;21.80;13.95;;;;;;;;;;5028126;28;20111;-76
2023/06/21 05:17:26;;;;;;;23.58;13.65;;;;;;;;;;5024072;28;20036;-76
2023/06/21 05:19:52;;;;;;;25.35;14.00;;;;;;;;;;5029726;28;20426;-79
2023/06/21 05:22:18;;;;;;;23.30;13.70;;;;;;;;;;5024996;28;20048;-78
2023/06/21 05:24:44;;;;;;;24.50;14.38;;;;;;;;;;5028651;28;20046;-78
2023/06/21 05:27:10;;;;;;;22.33;13.75;;;;;;;;;;5025043;28;20367;-80
2023/06/21 05:29:36;;;;;;;25.13;12.30;;;;;;;;;;5023846;28;20156;-75
2023/06/21 05:32:02;;;;;;;24.17;17.30;;;;;;;;;;5025656;28;20033;-75
2023/06/21 05:34:30;;;;;;;23.25;16.17;;;;;;;;;;5026452;28;20049;-78
2023/06/21 05:36:58;;;;;;;20.95;12.20;;;;;;;;;;5027359;28;20026;-73
2023/06/21 05:39:24;;;;;;;24.55;14.45;;;;;;;;;;5022513;28;20040;-73
2023/06/21 05:41:50;;;;;;;21.90;12.48;;;;;;;;;;5022130;28;20128;-73
2023/06/21 05:44:16;;;;;;;21.88;11.48;;;;;;;;;;5026460;28;20360;-72
2023/06/21 05:46:42;;;;;;;18.98;11.55;;;;;;;;;;5027940;28;20025;-73
2023/06/21 05:49:08;;;;;;;23.80;12.73;;;;;;;;;;5022734;28;20075;-73
2023/06/21 05:51:35;;;;;;;22.40;12.38;;;;;;;;;;5022567;28;20053;-73
2023/06/21 05:54:01;;;;;;;22.25;12.40;;;;;;;;;;5024392;28;20033;-73
2023/06/21 05:56:28;;;;;;;22.50;12.20;;;;;;;;;;5021293;28;20025;-73
2023/06/21 05:58:54;;;;;;;26.83;11.77;;;;;;;;;;5022894;28;20037;-72
2023/06/21 06:01:21;;;;;;;19.00;12.52;;;;;;;;;;5029021;28;20080;-73
2023/06/21 06:03:47;;;;;;;20.08;11.30;;;;;;;;;;5021825;28;20048;-74
2023/06/21 06:06:14;;;;;;;21.20;12.52;;;;;;;;;;5025549;28;20048;-72
2023/06/21 06:08:40;;;;;;;270.10;190.52;;;;;;;;;;5026285;28;20018;-73
2023/06/21 06:11:06;;;;;;;21.63;13.60;;;;;;;;;;5027269;28;20049;-76
2023/06/21 06:13:32;;;;;;;32.15;23.40;;;;;;;;;;5028844;28;20033;-75
2023/06/21 06:15:58;;;;;;;19.17;11.50;;;;;;;;;;5027565;28;20064;-73
2023/06/21 06:18:24;;;;;;;19.13;11.57;;;;;;;;;;5023847;28;20151;-72
2023/06/21 06:20:50;;;;;;;17.38;10.85;;;;;;;;;;5022915;28;20037;-76
2023/06/21 06:23:16;;;;;;;20.55;14.20;;;;;;;;;;5027951;28;20337;-78
2023/06/21 06:25:44;;;;;;;16.83;10.50;;;;;;;;;;5027428;28;20207;-76
2023/06/21 06:28:10;;;;;;;18.00;10.85;;;;;;;;;;5026501;28;20029;-73
2023/06/21 06:30:36;;;;;;;17.13;10.18;;;;;;;;;;5023031;28;20390;-73
2023/06/21 06:33:03;;;;;;;18.65;10.48;;;;;;;;;;5019140;28;20252;-72
2023/06/21 06:35:29;;;;;;;14.73;9.45;;;;;;;;;;5025384;28;20083;-73
2023/06/21 06:37:55;;;;;;;13.77;8.68;;;;;;;;;;5029925;28;20038;-73
2023/06/21 06:40:21;;;;;;;13.68;8.82;;;;;;;;;;5029898;28;20045;-73
2023/06/21 06:42:47;;;;;;;16.25;8.27;;;;;;;;;;5032205;28;20029;-72
2023/06/21 06:45:13;;;;;;;12.70;8.20;;;;;;;;;;5031026;28;20383;-73
2023/06/21 06:47:39;;;;;;;11.98;7.47;;;;;;;;;;5029438;28;20045;-74
2023/06/21 06:50:05;;;;;;;14.35;7.03;;;;;;;;;;5027728;28;20242;-76
2023/06/21 06:52:32;;;;;;;11.43;7.35;;;;;;;;;;5028196;28;20607;-75
2023/06/21 06:54:58;;;;;;;9.35;6.97;;;;;;;;;;5025910;28;20025;-76
2023/06/21 06:57:24;;;;;;;9.23;6.65;;;;;;;;;;5023907;28;20047;-75
2023/06/21 06:59:50;;;;;;;12.38;7.47;;;;;;;;;;5033661;28;20022;-74
2023/06/21 07:02:17;;;;;;;12.98;8.18;;;;;;;;;;5031565;28;20034;-76
2023/06/21 07:04:43;;;;;;;14.32;8.18;;;;;;;;;;5032493;28;20053;-77
2023/06/21 07:07:09;;;;;;;13.23;6.15;;;;;;;;;;5019671;28;20472;-76
2023/06/21 07:09:37;;;;;;;10.70;6.55;;;;;;;;;;5031167;28;20045;-77
2023/06/21 07:12:04;;;;;;;10.57;5.82;;;;;;;;;;5022164;28;20402;-75
2023/06/21 07:14:30;;;;;;;12.30;6.78;;;26.40;99.90;;;;;;5023581;28;20045;-76
2023/06/21 07:16:56;;;;;;;12.07;6.32;;;;;;;;;;5028221;28;20495;-76
2023/06/21 07:19:22;;;;;;;14.95;9.32;;;;;;;;;;5023927;28;20120;-77
2023/06/21 07:21:49;;;;;;;11.55;8.30;;;;;;;;;;5025183;28;20207;-76
2023/06/21 07:24:15;;;;;;;12.05;6.18;;;;;;;;;;5023572;28;20033;-76
2023/06/21 07:26:41;;;;;;;11.10;6.05;;;;;;;;;;5023000;28;20132;-71
2023/06/21 07:29:07;;;;;;;11.90;6.28;;;;;;;;;;5025158;28;20164;-80
2023/06/21 07:31:33;;;;;;;10.63;6.28;;;;;;;;;;5026919;28;20037;-79
2023/06/21 07:34:00;;;;;;;8.73;6.22;;;;;;;;;;5032633;28;20463;-79
2023/06/21 07:36:27;;;;;;;12.00;5.55;;;;;;;;;;5030016;28;20037;-78
2023/06/21 07:38:54;;;;;;;13.30;5.68;;;;;;;;;;5031852;28;20025;-80
2023/06/21 07:41:20;;;;;;;9.30;5.85;;;;;;;;;;5031204;28;20025;-80
2023/06/21 07:43:46;;;;;;;8.68;5.45;;;;;;;;;;5030130;28;20033;-80
2023/06/21 07:46:12;;;;;;;10.98;6.18;;;;;;;;;;5031691;28;20030;-79
2023/06/21 07:48:39;;;;;;;7.55;5.25;;;;;;;;;;5024411;28;20041;-77
2023/06/21 07:51:05;;;;;;;10.60;5.03;;;;;;;;;;5025200;28;20038;-80
2023/06/21 07:53:32;;;;;;;7.30;4.28;;;;;;;;;;5015598;28;20037;-73
2023/06/21 07:56:00;;;;;;;8.07;5.10;;;;;;;;;;5029077;28;20021;-74
2023/06/21 07:58:26;;;;;;;5.13;4.30;;;;;;;;;;5029817;28;20036;-72
2023/06/21 08:00:52;;;;;;;5.85;3.92;;;;;;;;;;5023119;28;20104;-74
2023/06/21 08:03:17;;;;;;;6.38;4.15;;;30.60;99.90;;;;;;5028082;28;20036;-75
2023/06/21 08:05:43;;;;;;;8.05;5.05;;;30.40;99.90;;;;;;5025143;28;20390;-76
2023/06/21 08:08:09;;;;;;;6.95;4.53;;;;;;;;;;5021279;28;20479;-76
2023/06/21 08:10:35;;;;;;;8.60;4.88;;;;;;;;;;5024229;28;20057;-76
2023/06/21 08:13:01;;;;;;;5.03;4.43;;;;;;;;;;5023551;28;20033;-76
2023/06/21 08:15:27;;;;;;;35.05;30.88;;;;;;;;;;5024251;28;20049;-72
2023/06/21 08:17:53;;;;;;;8.60;6.00;;;;;;;;;;5026076;28;20490;-71
2023/06/21 08:20:19;;;;;;;4.63;4.10;;;;;;;;;;5024356;28;20077;-73
2023/06/21 08:22:47;;;;;;;7.88;4.63;;;31.20;99.90;;;;;;5023503;28;20029;-76
2023/06/21 08:25:13;;;;;;;23.15;16.83;;;;;;;;;;5022045;28;20062;-77
2023/06/21 08:27:39;;;;;;;7.55;4.97;;;;;;;;;;5017370;28;20033;-75
2023/06/21 08:30:06;;;;;;;5.53;4.32;;;30.90;99.90;;;;;;5021742;28;20051;-74
2023/06/21 08:32:32;;;;;;;6.38;3.72;;;31.20;99.90;;;;;;5021219;28;20032;-73
2023/06/21 08:34:58;;;;;;;5.75;3.72;;;;;;;;;;5019236;28;20045;-72
2023/06/21 08:37:27;;;;;;;4.47;3.95;;;31.20;99.90;;;;;;5018808;28;20083;-72
2023/06/21 08:39:53;;;;;;;6.03;4.10;;;;;;;;;;5025217;28;20049;-72
2023/06/21 08:42:23;;;;;;;5.32;4.13;;;;;;;;;;5023772;28;20120;-72
2023/06/21 08:44:50;;;;;;;10.63;4.57;;;31.20;99.90;;;;;;5025284;28;20427;-72
2023/06/21 08:47:17;;;;;;;8.10;4.95;;;31.40;99.90;;;;;;5027931;28;20041;-72
2023/06/21 08:49:46;;;;;;;6.82;4.28;;;31.20;99.90;;;;;;5022409;28;20046;-72
2023/06/21 08:52:14;;;;;;;4.90;4.22;;;;;;;;;;5027783;28;20113;-73
2023/06/21 08:54:45;;;;;;;5.50;4.28;;;;;;;;;;5020446;28;20029;-75
2023/06/21 08:57:14;;;;;;;7.07;3.55;;;;;;;;;;5022946;28;20033;-76
2023/06/21 08:59:42;;;;;;;6.60;3.80;;;;;;;;;;5022211;28;20036;-76
2023/06/21 09:02:19;;;;;;;6.25;4.07;;;31.50;99.90;;;;;;5025376;28;20060;-76
2023/06/21 09:04:48;;;;;;;7.00;4.38;;;;;;;;;;5024880;28;20125;-75
2023/06/21 09:07:14;;;;;;;5.78;3.90;;;;;;;;;;5028958;28;20030;-75
2023/06/21 09:09:42;;;;;;;7.57;4.20;;;;;;;;;;5025462;28;20029;-75
2023/06/21 09:12:09;;;;;;;5.05;3.88;;;;;;;;;;5026304;28;20029;-74
2023/06/21 09:14:35;;;;;;;6.45;3.50;;;;;;;;;;5022324;28;20040;-75
2023/06/21 09:17:01;;;;;;;5.07;3.80;;;;;;;;;;5023702;28;20526;-74
2023/06/21 09:19:28;;;;;;;4.03;3.63;;;;;;;;;;5022534;28;20523;-74
2023/06/21 09:21:56;;;;;;;5.45;3.35;;;31.50;99.90;;;;;;5019693;28;20037;-80
2023/06/21 09:24:22;;;;;;;5.78;3.90;;;;;;;;;;5026841;28;20033;-80
2023/06/21 09:26:48;;;;;;;6.10;3.38;;;;;;;;;;5020800;28;20059;-75
2023/06/21 09:29:16;;;;;;;5.90;3.28;;;;;;;;;;5016045;28;20037;-74
2023/06/21 09:31:42;;;;;;;3.63;2.92;;;;;;;;;;5021264;28;20029;-76
2023/06/21 09:34:08;;;;;;;4.78;3.13;;;;;;;;;;5023639;28;20072;-76
2023/06/21 09:36:34;;;;;;;4.97;3.53;;;;;;;;;;5025064;28;20092;-76
2023/06/21 09:39:10;;;;;;;6.03;2.88;;;;;;;;;;5026156;28;20029;-75
2023/06/21 09:41:38;;;;;;;5.00;3.40;;;;;;;;;;5022369;28;20124;-76
2023/06/21 09:44:04;;;;;;;5.82;2.90;;;;;;;;;;5025835;28;20029;-75
2023/06/21 09:46:30;;;;;;;4.60;2.88;;;;;;;;;;5024374;28;20568;-73
2023/06/21 09:49:06;;;;;;;3.95;3.13;;;;;;;;;;5024082;28;20037;-75
2023/06/21 09:51:32;;;;;;;4.05;3.40;;;;;;;;;;5025901;28;20039;-75
2023/06/21 09:53:59;;;;;;;5.05;3.83;;;;;;;;;;5028636;28;20029;-74
2023/06/21 09:56:25;;;;;;;3.55;3.10;;;;;;;;;;5025413;28;20043;-73
2023/06/21 09:58:52;;;;;;;5.18;3.83;;;;;;;;;;5027092;28;20040;-73
2023/06/21 10:01:19;;;;;;;5.45;3.10;;;;;;;;;;5024482;28;20056;-74
2023/06/21 10:03:45;;;;;;;6.55;4.15;;;;;;;;;;5017133;28;20040;-73
2023/06/21 10:06:16;;;;;;;4.82;3.20;;;;;;;;;;5019084;28;20065;-74
2023/06/21 10:08:43;;;;;;;6.13;2.95;;;;;;;;;;5014345;28;20092;-71
2023/06/21 10:11:09;;;;;;;6.97;3.72;;;;;;;;;;5020883;28;20046;-72
2023/06/21 10:13:37;;;;;;;6.63;3.20;;;;;;;;;;5015555;28;20096;-72
2023/06/21 10:16:03;;;;;;;4.30;3.15;;;;;;;;;;5017178;28;20141;-73
2023/06/21 10:18:30;;;;;;;5.40;3.50;;;;;;;;;;5018627;28;20148;-73
2023/06/21 10:20:58;;;;;;;5.50;2.88;;;;;;;;;;5028516;28;20187;-74
2023/06/21 10:23:28;;;;;;;5.65;3.60;;;;;;;;;;5030702;28;20029;-73
2023/06/21 10:25:56;;;;;;;6.35;3.38;;;;;;;;;;5034111;28;20120;-73
2023/06/21 10:28:23;;;;;;;6.50;3.53;;;;;;;;;;5024428;28;20330;-72
2023/06/21 10:30:53;;;;;;;6.32;3.90;;;;;;;;;;5029277;28;20030;-73
2023/06/21 10:33:21;;;;;;;5.60;3.72;;;;;;;;;;5024841;28;20395;-72
2023/06/21 10:35:49;;;;;;;4.80;4.30;;;;;;;;;;5027251;28;20056;-73
2023/06/21 10:38:24;;;;;;;8.73;4.85;;;;;;;;;;5029635;28;20038;-74
2023/06/21 10:40:50;;;;;;;5.43;4.32;;;;;;;;;;5032090;28;20042;-73
2023/06/21 10:43:17;;;;;;;5.25;4.13;;;;;;;;;;5028028;28;20161;-72
2023/06/21 10:45:44;;;;;;;5.47;3.70;;;;;;;;;;5030114;28;20362;-72
2023/06/21 10:48:11;;;;;;;6.65;4.35;;;;;;;;;;5027760;28;20040;-72
2023/06/21 10:50:37;;;;;;;5.90;4.82;;;;;;;;;;5032050;28;20041;-73
2023/06/21 10:53:04;;;;;;;10.00;5.10;;;;;;;;;;5011499;28;20379;-71
2023/06/21 10:55:30;;;;;;;8.45;5.25;;;;;;;;;;5030581;28;20029;-72
2023/06/21 10:57:56;;;;;;;7.97;5.35;;;;;;;;;;5028909;28;20103;-73
2023/06/21 11:00:23;;;;;;;7.70;6.40;;;;;;;;;;5027873;28;20487;-72
2023/06/21 11:02:49;;;;;;;7.93;6.18;;;;;;;;;;5027984;28;20561;-79
2023/06/21 11:05:15;;;;;;;8.20;5.85;;;;;;;;;;5029772;28;20033;-76
2023/06/21 11:08:01;;;;;;;14.68;10.65;;;;;;;;;;5026606;28;20107;-79
2023/06/21 11:10:39;;;;;;;8.43;6.15;;;;;;;;;;5026708;28;20406;-72
2023/06/21 11:13:05;;;;;;;4.95;4.45;;;;;;;;;;5018919;28;20038;-74
2023/06/21 11:15:32;;;;;;;5.78;4.93;;;;;;;;;;5023731;28;20049;-75
2023/06/21 11:18:01;;;;;;;5.28;4.65;;;;;;;;;;5028460;28;20053;-75
2023/06/21 11:20:31;;;;;;;4.78;3.78;;;;;;;;;;5032970;28;20124;-75
2023/06/21 11:23:25;;;;;;;8.68;5.05;;;;;;;;;;5030752;28;20049;-75
2023/06/21 11:25:51;;;;;;;5.70;4.00;;;;;;;;;;5011593;28;20046;-74
2023/06/21 11:28:20;;;;;;;4.38;3.35;;;;;;;;;;5032966;28;20525;-76
2023/06/21 11:31:01;;;;;;;5.55;3.60;;;;;;;;;;5030055;28;20030;-75
2023/06/21 11:33:31;;;;;;;3.42;2.83;;;;;;;;;;5027262;28;20104;-76
2023/06/21 11:36:04;;;;;;;3.75;2.33;;;;;;;;;;5026781;28;20030;-75
2023/06/21 11:38:30;;;;;;;3.67;2.35;;;;;;;;;;5032012;28;20037;-75
2023/06/21 11:40:56;;;;;;;4.47;3.33;;;;;;;;;;5031566;28;20080;-76
2023/06/21 11:43:22;;;;;;;5.18;3.17;;;;;;;;;;5031345;28;20391;-75
2023/06/21 11:46:15;;;;;;;4.72;3.20;;;;;;;;;;5031585;28;20021;-75
2023/06/21 11:48:41;;;;;;;3.40;2.63;;;;;;;;;;5020364;28;20037;-76
2023/06/21 11:51:11;;;;;;;6.20;2.78;;;;;;;;;;5032190;28;20116;-76
2023/06/21 11:53:41;;;;;;;3.70;2.88;;;;;;;;;;5026679;28;20120;-75
2023/06/21 11:56:16;;;;;;;4.53;3.42;;;;;;;;;;5031591;28;20034;-75
2023/06/21 11:58:42;;;;;;;6.65;2.75;;;;;;;;;;5031279;28;20028;-76
2023/06/21 12:01:09;;;;;;;7.78;3.38;;;;;;;;;;5031538;28;20025;-75
2023/06/21 12:03:35;;;;;;;3.88;2.38;;;;;;;;;;5029909;28;20036;-76
2023/06/21 12:06:02;;;;;;;3.78;3.00;;;;;;;;;;5025683;28;20046;-75
2023/06/21 12:08:29;;;;;;;8.23;4.18;;;;;;;;;;5028939;28;20064;-75
2023/06/21 12:11:02;;;;;;;7.10;3.58;;;;;;;;;;5029753;28;20069;-75
2023/06/21 12:13:28;;;;;;;6.38;4.07;;;;;;;;;;5030341;28;20031;-75
2023/06/21 12:16:04;;;;;;;8.38;4.53;;;;;;;;;;5028346;28;20044;-75
2023/06/21 12:18:31;;;;;;;4.57;4.10;;;;;;;;;;5031742;28;20029;-75
2023/06/21 12:20:58;;;;;;;6.72;4.40;;;;;;;;;;5031195;28;20036;-75
2023/06/21 12:23:25;;;;;;;7.78;4.90;;;;;;;;;;5030166;28;20083;-75
2023/06/21 12:25:52;;;;;;;8.18;4.53;;;;;;;;;;5029108;28;20467;-74
2023/06/21 12:28:19;;;;;;;9.15;5.13;;;;;;;;;;5031492;28;20034;-75
2023/06/21 12:30:53;;;;;;;7.07;4.30;;;;;;;;;;5029249;28;20029;-75
2023/06/21 12:33:22;;;;;;;6.18;4.57;;;;;;;;;;5026968;28;20087;-75
2023/06/21 12:35:48;;;;;;;6.30;4.72;;;;;;;;;;5022921;28;20030;-74
2023/06/21 12:38:18;;;;;;;7.13;4.78;;;;;;;;;;5029306;28;20037;-75
2023/06/21 12:40:58;;;;;;;10.45;4.75;;;;;;;;;;5030103;28;20567;-76
2023/06/21 12:43:37;;;;;;;7.22;4.88;;;;;;;;;;5030316;28;20371;-75
2023/06/21 12:46:05;;;;;;;5.93;3.88;;;;;;;;;;5026931;28;20031;-75
2023/06/21 12:48:31;;;;;;;9.35;4.80;;;;;;;;;;5025835;28;20029;-75
2023/06/21 12:50:57;;;;;;;6.25;4.28;;;;;;;;;;5016500;28;20117;-76
2023/06/21 12:53:29;;;;;;;8.90;4.60;;;;;;;;;;5021840;28;20107;-77
2023/06/21 12:55:56;;;;;;;7.18;4.93;;;;;;;;;;5025279;28;20043;-75
2023/06/21 12:58:22;;;;;;;7.72;5.55;;;;;;;;;;5026087;28;20041;-76
2023/06/21 13:00:48;;;;;;;8.38;5.78;;;;;;;;;;5027910;28;20040;-77
2023/06/21 13:03:15;;;;;;;9.48;6.72;;;;;;;;;;5026532;28;20113;-77
2023/06/21 13:05:42;;;;;;;9.55;6.90;;;;;;;;;;5018308;28;20025;-77
2023/06/21 13:08:08;;;;;;;10.82;7.68;;;;;;;;;;5020233;28;22192;-78
2023/06/21 13:10:34;;;;;;;11.32;8.00;;;;;;;;;;5016743;28;20087;-77
2023/06/21 13:13:00;;;;;;;10.90;7.30;;;;;;;;;;5019220;28;20042;-77
2023/06/21 13:15:26;;;;;;;9.30;7.00;;;;;;;;;;5020832;28;20063;-78
2023/06/21 13:17:52;;;;;;;9.73;6.63;;;;;;;;;;5026267;28;20053;-76
2023/06/21 13:20:18;;;;;;;16.20;7.80;;;;;;;;;;5020121;28;20037;-78
2023/06/21 13:22:45;;;;;;;13.88;7.55;;;;;;;;;;5020293;28;20034;-80
2023/06/21 13:25:11;;;;;;;9.48;6.53;;;;;;;;;;5022401;28;20038;-81
2023/06/21 13:27:37;;;;;;;12.00;8.15;;;;;;;;;;5017263;28;20069;-78
2023/06/21 13:30:04;;;;;;;12.50;7.25;;;;;;;;;;5018592;28;20208;-73
2023/06/21 13:32:30;;;;;;;10.35;6.90;;;;;;;;;;5019511;28;20104;-73
2023/06/21 13:34:56;;;;;;;10.77;7.22;;;;;;;;;;5018492;28;20029;-71
2023/06/21 13:37:22;;;;;;;13.15;7.15;;;;;;;;;;5017191;28;20052;-72
2023/06/21 13:39:48;;;;;;;12.95;7.35;;;;;;;;;;5021019;28;20083;-74
2023/06/21 13:42:14;;;;;;;9.57;6.93;;;;;;;;;;5020539;28;20045;-73
2023/06/21 13:44:40;;;;;;;13.65;6.57;;;;;;;;;;5021061;28;20175;-74
2023/06/21 13:47:06;;;;;;;11.43;7.70;;;;;;;;;;5029010;28;20522;-74
2023/06/21 13:49:32;;;;;;;13.30;7.22;;;;;;;;;;5025792;28;20036;-73
2023/06/21 13:51:58;;;;;;;8.35;6.30;;;;;;;;;;5026662;28;20490;-74
2023/06/21 13:54:24;;;;;;;10.10;7.40;;;;;;;;;;5021779;28;20052;-74
2023/06/21 13:56:50;;;;;;;8.52;6.05;;;;;;;;;;5024604;28;20689;-83
2023/06/21 13:59:16;;;;;;;11.60;6.28;;;;;;;;;;5022287;28;20057;-86
2023/06/21 14:01:42;;;;;;;11.30;6.85;;;;;;;;;;5021537;28;20132;-72
2023/06/21 14:04:10;;;;;;;8.85;6.47;;;;;;;;;;5031288;28;20057;-72
2023/06/21 14:06:36;;;;;;;11.02;6.82;;;;;;;;;;5026956;28;20013;-74
2023/06/21 14:09:02;;;;;;;9.90;6.50;;;;;;;;;;5022939;28;20060;-72
2023/06/21 14:11:28;;;;;;;11.75;7.13;;;;;;;;;;5024048;28;20033;-72
2023/06/21 14:13:54;;;;;;;13.68;6.68;;;;;;;;;;5024518;28;20604;-70
2023/06/21 14:16:20;;;;;;;7.95;6.38;;;;;;;;;;5027775;28;20120;-73
2023/06/21 14:18:46;;;;;;;11.15;7.03;;;;;;;;;;5023968;28;20040;-73
2023/06/21 14:21:14;;;;;;;10.30;6.22;;;;;;;;;;5025892;28;20045;-74
2023/06/21 14:23:40;;;;;;;11.65;5.78;;;;;;;;;;5024122;28;20033;-71